Terminal Aerodrome Forecast
Issued by NWS

Home | Current Version | Previous Version | Text Only | Print | Product List | Glossary On
Versions: 1 2 3 4 5 6 7 8 9 10 11 12 13 14 15
000
FTUS45 KPSR 062320
TAFBLH
TAF
KBLH 062320Z 0700/0724 20018G30KT P6SM VCTS BKN080CB BKN120
      TEMPO 0700/0702 20020G32KT 2SM BLDU BKN060
     FM070300 23012KT P6SM SCT060 BKN100 BKN200
     FM070600 20010KT P6SM FEW080 SCT120 BKN200=

USA.gov is the U.S. government's official web portal to all federal, state and local government web resources and services.